Time;durP1;ratioP1;P1;durP2;ratioP2;P2;SDS_P1;SDS_P2;PMS_P1;PMS_P2;Temp;Humidity;BMP_temperature;BMP_pressure;BME280_temperature;BME280_humidity;BME280_pressure;Samples;Min_cycle;Max_cycle;Signal;HPM_P1;HPM_P2
2022/12/09 00:02:07;;;;;;;0.87;0.87;;;2.00;95.20;;;;;;5075538;28;20175;-68
2022/12/09 00:04:33;;;;;;;0.70;0.70;;;2.10;95.00;;;;;;5075573;28;20175;-69
2022/12/09 00:06:59;;;;;;;1.53;1.53;;;2.00;94.80;;;;;;5075636;28;20228;-68
2022/12/09 00:09:24;;;;;;;0.87;0.87;;;2.10;94.70;;;;;;5075485;28;20180;-68
2022/12/09 00:11:51;;;;;;;0.50;0.40;;;2.20;94.60;;;;;;5075534;28;20189;-68
2022/12/09 00:14:17;;;;;;;0.82;0.82;;;2.30;94.60;;;;;;5075421;28;20229;-69
2022/12/09 00:16:43;;;;;;;1.58;1.50;;;1.90;99.40;;;;;;5075267;28;20212;-68
2022/12/09 00:19:09;;;;;;;0.30;0.30;;;2.30;94.20;;;;;;5075308;28;20637;-67
2022/12/09 00:21:35;;;;;;;0.70;0.70;;;2.20;94.50;;;;;;5075253;28;20232;-68
2022/12/09 00:24:06;;;;;;;4.72;2.63;;;2.10;94.70;;;;;;5075188;28;20172;-68
2022/12/09 00:26:33;;;;;;;0.43;0.43;;;2.20;94.80;;;;;;5075290;28;20256;-69
2022/12/09 00:28:59;;;;;;;0.50;0.50;;;2.20;94.70;;;;;;5075128;28;20180;-68
2022/12/09 00:31:29;;;;;;;0.60;0.60;;;2.20;94.60;;;;;;5075252;28;20176;-68
2022/12/09 00:33:57;;;;;;;0.40;0.40;;;2.40;94.50;;;;;;5074962;28;20172;-68
2022/12/09 00:36:23;;;;;;;1.42;1.40;;;2.40;94.30;;;;;;5074730;28;20511;-69
2022/12/09 00:38:49;;;;;;;0.40;0.40;;;2.50;94.20;;;;;;5075074;28;20215;-69
2022/12/09 00:41:16;;;;;;;3.22;1.33;;;2.60;94.20;;;;;;5074711;28;20446;-68
2022/12/09 00:43:42;;;;;;;3.00;1.77;;;2.60;94.40;;;;;;5074446;28;20189;-68
2022/12/09 00:46:09;;;;;;;3.72;0.93;;;2.60;94.50;;;;;;5074313;28;20183;-68
2022/12/09 00:48:37;;;;;;;2.63;1.77;;;2.60;94.40;;;;;;5074641;28;20210;-68
2022/12/09 00:51:07;;;;;;;1.02;0.98;;;2.70;94.10;;;;;;5074982;28;20685;-68
2022/12/09 00:53:33;;;;;;;0.77;0.77;;;2.70;94.00;;;;;;5074870;28;20207;-69
2022/12/09 00:55:59;;;;;;;0.55;0.55;;;2.80;94.10;;;;;;5074566;28;20178;-68
2022/12/09 00:58:25;;;;;;;0.40;0.40;;;2.70;94.20;;;;;;5074423;28;20189;-68
2022/12/09 01:00:52;;;;;;;6.07;2.67;;;2.80;93.90;;;;;;5074594;28;20210;-68
2022/12/09 01:03:19;;;;;;;3.40;2.63;;;2.80;93.90;;;;;;5074395;28;20400;-69
2022/12/09 01:05:45;;;;;;;0.73;0.73;;;2.70;93.90;;;;;;5074381;28;20214;-68
2022/12/09 01:08:11;;;;;;;1.13;0.93;;;2.50;94.20;;;;;;5074287;28;20212;-68
2022/12/09 01:10:39;;;;;;;1.00;1.00;;;2.60;94.60;;;;;;5074491;28;20404;-68
2022/12/09 01:13:05;;;;;;;2.60;2.50;;;2.60;94.50;;;;;;5074373;28;20172;-68
2022/12/09 01:15:31;;;;;;;0.30;0.30;;;2.70;94.60;;;;;;5074020;28;20194;-68
2022/12/09 01:17:57;;;;;;;1.25;1.25;;;2.70;94.50;;;;;;5074084;28;20243;-68
2022/12/09 01:20:23;;;;;;;3.80;2.88;;;2.60;94.50;;;;;;5074374;28;20209;-68
2022/12/09 01:22:49;;;;;;;5.65;5.13;;;2.50;94.60;;;;;;5074471;28;20172;-69
2022/12/09 01:25:15;;;;;;;0.67;0.67;;;2.50;94.80;;;;;;5073926;28;20166;-68
2022/12/09 01:27:41;;;;;;;1.53;1.43;;;2.40;94.70;;;;;;5073865;28;20216;-68
2022/12/09 01:30:08;;;;;;;1.83;0.80;;;2.50;94.90;;;;;;5074170;28;20415;-69
2022/12/09 01:32:33;;;;;;;1.98;1.88;;;2.40;94.80;;;;;;5073868;28;20404;-68
2022/12/09 01:34:59;;;;;;;1.17;1.17;;;2.40;94.90;;;;;;5073678;28;20225;-68
2022/12/09 01:37:25;;;;;;;0.40;0.40;;;2.50;95.00;;;;;;5073670;28;20200;-68
2022/12/09 01:39:50;;;;;;;0.60;0.60;;;2.50;95.10;;;;;;5073663;28;20206;-68
2022/12/09 01:42:20;;;;;;;0.50;0.50;;;2.60;95.00;;;;;;5074201;28;20222;-68
2022/12/09 01:45:20;;;;;;;7.40;1.58;;;2.70;94.80;;;;;;5073951;28;20176;-68
2022/12/09 01:47:47;;;;;;;3.63;1.33;;;2.60;94.90;;;;;;5073566;28;20191;-68
2022/12/09 01:50:15;;;;;;;0.40;0.40;;;2.50;95.00;;;;;;5073625;28;20646;-69
2022/12/09 01:52:41;;;;;;;0.60;0.60;;;2.40;94.90;;;;;;5074073;28;20169;-68
2022/12/09 01:55:08;;;;;;;1.45;1.25;;;2.40;95.00;;;;;;5072585;28;20181;-69
2022/12/09 01:57:33;;;;;;;1.77;1.38;;;2.50;95.10;;;;;;5073490;28;20199;-68
2022/12/09 01:59:59;;;;;;;0.50;0.50;;;2.60;95.20;;;;;;5073541;28;20282;-68
2022/12/09 02:02:29;;;;;;;1.90;0.95;;;2.80;95.10;;;;;;5073654;28;20167;-69
2022/12/09 02:04:55;;;;;;;0.88;0.88;;;2.90;94.90;;;;;;5073334;28;20180;-69
2022/12/09 02:07:21;;;;;;;1.63;1.52;;;3.00;94.60;;;;;;5073408;28;20227;-68
2022/12/09 02:09:51;;;;;;;0.57;0.57;;;3.00;94.40;;;;;;5073655;28;20215;-69
2022/12/09 02:12:37;;;;;;;2.38;2.00;;;3.00;94.30;;;;;;5073505;28;20214;-68
2022/12/09 02:15:06;;;;;;;2.95;1.77;;;3.10;94.30;;;;;;5073311;28;20197;-68
2022/12/09 02:17:43;;;;;;;2.25;1.55;;;3.10;94.20;;;;;;5073190;28;20205;-68
2022/12/09 02:20:18;;;;;;;1.65;1.33;;;3.20;94.10;;;;;;5073515;28;20205;-68
2022/12/09 02:22:51;;;;;;;0.40;0.40;;;3.10;94.10;;;;;;5073427;28;20191;-67
2022/12/09 02:25:32;;;;;;;1.13;1.13;;;3.00;94.10;;;;;;5073307;28;20173;-68
2022/12/09 02:28:09;;;;;;;0.60;0.60;;;3.00;94.30;;;;;;5073185;28;20211;-69
2022/12/09 02:30:51;;;;;;;5.55;2.28;;;3.00;94.50;;;;;;5073267;28;20173;-68
2022/12/09 02:33:48;;;;;;;0.40;0.40;;;3.00;94.10;;;;;;5073419;28;20642;-68
2022/12/09 02:36:16;;;;;;;4.25;0.98;;;3.00;94.20;;;;;;5073077;28;20224;-69
2022/12/09 02:38:43;;;;;;;0.88;0.88;;;3.00;94.30;;;;;;5073328;28;20208;-69
2022/12/09 02:41:17;;;;;;;2.92;1.13;;;3.10;94.20;;;;;;5073128;28;20201;-68
2022/12/09 02:43:48;;;;;;;0.80;0.80;;;3.10;93.90;;;;;;5073195;28;20211;-68
2022/12/09 02:46:17;;;;;;;2.92;2.83;;;3.20;93.90;;;;;;5073080;28;20249;-69
2022/12/09 02:48:52;;;;;;;6.10;5.80;;;3.10;93.70;;;;;;5072912;28;20186;-67
2022/12/09 02:51:19;;;;;;;8.18;2.28;;;3.10;93.80;;;;;;5073277;28;20255;-69
2022/12/09 02:53:51;;;;;;;1.50;1.15;;;3.20;93.90;;;;;;5073129;28;20187;-67
2022/12/09 02:56:17;;;;;;;0.95;0.95;;;3.20;93.60;;;;;;5072892;28;20201;-69
2022/12/09 02:58:43;;;;;;;3.22;1.95;;;3.20;93.70;;;;;;5072990;28;20189;-68
2022/12/09 03:01:23;;;;;;;0.80;0.80;;;3.20;93.70;;;;;;5073077;28;20227;-68
2022/12/09 03:03:52;;;;;;;1.70;1.40;;;3.10;93.90;;;;;;5073121;28;20554;-67
2022/12/09 03:06:19;;;;;;;1.70;1.60;;;3.10;94.00;;;;;;5075103;28;20204;-69
2022/12/09 03:09:08;;;;;;;0.40;0.40;;;3.10;93.80;;;;;;5076568;28;20699;-67
2022/12/09 03:11:34;;;;;;;0.80;0.80;;;3.10;93.80;;;;;;5076764;28;20253;-68
2022/12/09 03:14:15;;;;;;;3.72;3.63;;;3.10;93.50;;;;;;5076878;28;20173;-69
2022/12/09 03:16:53;;;;;;;0.98;0.90;;;3.00;99.80;;;;;;5076641;28;20188;-68
2022/12/09 03:19:25;;;;;;;2.92;2.72;;;3.10;93.70;;;;;;5076339;28;20166;-68
2022/12/09 03:21:57;;;;;;;1.30;1.20;;;3.10;93.80;;;;;;5076559;28;20166;-68
2022/12/09 03:24:40;;;;;;;0.40;0.40;;;3.00;93.70;;;;;;5076645;28;20630;-68
2022/12/09 03:27:09;;;;;;;4.95;2.42;;;3.00;93.80;;;;;;5076234;28;20190;-68
2022/12/09 03:29:40;;;;;;;0.70;0.70;;;3.00;94.10;;;;;;5076795;28;20164;-68
2022/12/09 03:32:09;;;;;;;3.13;1.67;;;2.90;94.40;;;;;;5076370;28;20231;-68
2022/12/09 03:34:39;;;;;;;4.07;3.88;;;2.90;94.60;;;;;;5076055;28;20765;-68
2022/12/09 03:37:06;;;;;;;1.23;1.20;;;2.90;94.80;;;;;;5075807;28;20208;-69
2022/12/09 03:39:35;;;;;;;1.90;1.85;;;3.00;95.20;;;;;;5076023;28;20168;-68
2022/12/09 03:42:06;;;;;;;3.35;3.15;;;3.10;95.30;;;;;;5076177;28;20181;-69
2022/12/09 03:44:37;;;;;;;1.10;1.05;;;3.10;95.40;;;;;;5074699;28;20684;-69
2022/12/09 03:47:05;;;;;;;1.15;1.05;;;3.10;95.60;;;;;;5076077;28;20198;-68
2022/12/09 03:49:31;;;;;;;1.85;1.48;;;3.10;95.70;;;;;;5075863;28;20171;-68
2022/12/09 03:52:14;;;;;;;0.68;0.68;;;3.10;95.80;;;;;;5076383;28;20166;-68
2022/12/09 03:54:44;;;;;;;1.58;0.88;;;3.10;95.90;;;;;;5075804;28;20513;-68
2022/12/09 03:57:15;;;;;;;2.55;2.42;;;3.10;96.00;;;;;;5075767;28;20192;-69
2022/12/09 03:59:45;;;;;;;2.42;2.22;;;3.20;95.80;;;;;;5075559;28;20241;-69
2022/12/09 04:02:11;;;;;;;3.22;1.15;;;3.10;95.90;;;;;;5075666;28;20533;-69
2022/12/09 04:04:40;;;;;;;1.10;1.10;;;3.10;96.00;;;;;;5075438;28;20166;-68
2022/12/09 04:07:06;;;;;;;5.22;1.20;;;3.10;96.10;;;;;;5075522;28;20193;-69
2022/12/09 04:09:32;;;;;;;1.23;1.13;;;3.20;96.30;;;;;;5075583;28;20521;-68
2022/12/09 04:11:58;;;;;;;0.83;0.83;;;3.20;96.30;;;;;;5075580;28;20406;-69
2022/12/09 04:14:23;;;;;;;2.30;2.20;;;3.20;96.40;;;;;;5075964;28;20166;-69
2022/12/09 04:16:49;;;;;;;1.20;1.17;;;3.20;96.40;;;;;;5074398;28;20216;-69
2022/12/09 04:19:15;;;;;;;0.80;0.80;;;3.20;96.30;;;;;;5075378;28;20231;-68
2022/12/09 04:21:40;;;;;;;1.63;1.53;;;3.20;96.40;;;;;;5075318;28;20212;-69
2022/12/09 04:24:07;;;;;;;1.47;1.37;;;3.20;96.50;;;;;;5075179;28;20340;-68
2022/12/09 04:26:33;;;;;;;5.95;4.43;;;3.00;99.90;;;;;;5075234;28;20388;-69
2022/12/09 04:28:59;;;;;;;2.83;2.60;;;3.20;96.60;;;;;;5075519;28;20543;-68
2022/12/09 04:31:25;;;;;;;0.55;0.55;;;3.20;96.60;;;;;;5075274;28;20177;-69
2022/12/09 04:33:50;;;;;;;5.73;3.33;;;3.20;96.70;;;;;;5075054;28;20259;-68
2022/12/09 04:36:19;;;;;;;0.77;0.77;;;3.20;96.60;;;;;;5074692;28;20666;-69
2022/12/09 04:38:45;;;;;;;1.30;1.30;;;3.30;96.70;;;;;;5074889;28;20659;-69
2022/12/09 04:41:14;;;;;;;1.15;1.15;;;3.30;96.80;;;;;;5074891;28;20201;-68
2022/12/09 04:43:40;;;;;;;1.88;1.77;;;3.20;96.80;;;;;;5074811;28;20169;-68
2022/12/09 04:46:13;;;;;;;2.33;2.23;;;3.20;96.80;;;;;;5074722;28;20176;-68
2022/12/09 04:48:39;;;;;;;5.35;1.55;;;3.20;97.00;;;;;;5074607;28;20420;-68
2022/12/09 04:51:08;;;;;;;6.90;1.47;;;3.30;97.00;;;;;;5074877;28;20234;-68
2022/12/09 04:53:34;;;;;;;2.15;1.70;;;3.30;96.90;;;;;;5074871;28;20218;-68
2022/12/09 04:56:10;;;;;;;1.90;1.75;;;3.30;96.80;;;;;;5074448;28;20182;-68
2022/12/09 04:58:36;;;;;;;2.17;2.08;;;3.30;96.80;;;;;;5074519;28;20212;-68
2022/12/09 05:01:09;;;;;;;0.90;0.77;;;3.30;96.70;;;;;;5074478;28;20664;-68
2022/12/09 05:03:35;;;;;;;0.75;0.75;;;3.30;96.70;;;;;;5074479;28;20177;-68
2022/12/09 05:06:05;;;;;;;2.20;1.88;;;3.30;96.80;;;;;;5074448;28;20653;-68
2022/12/09 05:08:31;;;;;;;1.80;1.70;;;3.30;96.90;;;;;;5074241;28;20655;-69
2022/12/09 05:10:58;;;;;;;1.10;1.10;;;3.30;96.90;;;;;;5074223;28;20205;-67
2022/12/09 05:13:25;;;;;;;1.10;1.05;;;3.30;96.90;;;;;;5074334;28;20188;-69
2022/12/09 05:15:52;;;;;;;3.45;3.25;;;3.30;96.90;;;;;;5074139;28;20193;-69
2022/12/09 05:18:17;;;;;;;0.85;0.75;;;3.30;96.90;;;;;;5074089;28;20189;-68
2022/12/09 05:20:43;;;;;;;2.27;2.20;;;3.30;97.00;;;;;;5074202;28;20207;-69
2022/12/09 05:23:09;;;;;;;0.70;0.70;;;3.30;97.00;;;;;;5074464;28;20649;-69
2022/12/09 05:25:34;;;;;;;4.90;4.70;;;3.30;97.10;;;;;;5073918;28;20211;-69
2022/12/09 05:28:00;;;;;;;2.17;1.97;;;3.30;97.10;;;;;;5074134;28;20185;-68
2022/12/09 05:30:26;;;;;;;2.90;2.60;;;3.30;97.30;;;;;;5074032;28;20197;-69
2022/12/09 05:32:51;;;;;;;1.43;1.43;;;3.30;97.10;;;;;;5074240;28;20172;-69
2022/12/09 05:35:17;;;;;;;1.73;1.63;;;3.40;97.20;;;;;;5073686;28;20403;-68
2022/12/09 05:37:43;;;;;;;1.97;1.87;;;3.30;97.10;;;;;;5073847;28;20204;-67
2022/12/09 05:40:09;;;;;;;1.93;1.90;;;3.30;97.20;;;;;;5073993;28;20246;-69
2022/12/09 05:42:34;;;;;;;2.25;2.13;;;3.30;97.30;;;;;;5074114;28;20162;-69
2022/12/09 05:45:00;;;;;;;3.20;3.00;;;3.30;97.40;;;;;;5073586;28;20174;-68
2022/12/09 05:47:26;;;;;;;3.97;3.77;;;3.30;97.40;;;;;;5073800;28;20196;-69
2022/12/09 05:49:51;;;;;;;0.70;0.70;;;3.30;97.40;;;;;;5073678;28;20169;-68
2022/12/09 05:52:17;;;;;;;0.90;0.90;;;3.30;97.30;;;;;;5073582;28;20173;-69
2022/12/09 05:54:42;;;;;;;1.27;0.93;;;3.30;97.40;;;;;;5073394;28;20165;-68
2022/12/09 05:57:08;;;;;;;3.90;3.70;;;3.40;97.30;;;;;;5073601;28;20727;-68
2022/12/09 05:59:34;;;;;;;1.03;1.03;;;3.30;97.30;;;;;;5073692;28;20169;-68
2022/12/09 06:01:59;;;;;;;0.70;0.70;;;3.40;97.40;;;;;;5073648;28;20161;-68
2022/12/09 06:04:25;;;;;;;17.40;3.37;;;3.30;97.50;;;;;;5073467;28;20530;-68
2022/12/09 06:06:50;;;;;;;4.03;3.83;;;3.40;97.60;;;;;;5074009;28;20189;-68
2022/12/09 06:09:16;;;;;;;2.10;2.10;;;3.40;97.60;;;;;;5073626;28;20180;-69
2022/12/09 06:11:42;;;;;;;3.10;2.80;;;3.40;97.60;;;;;;5073492;28;20172;-69
2022/12/09 06:14:09;;;;;;;3.87;2.27;;;3.40;97.60;;;;;;5073308;28;20169;-68
2022/12/09 06:16:34;;;;;;;7.72;5.85;;;3.40;97.60;;;;;;5073487;28;20176;-69
2022/12/09 06:19:00;;;;;;;3.70;2.87;;;3.40;97.50;;;;;;5072022;28;20184;-69
2022/12/09 06:21:26;;;;;;;0.50;0.50;;;3.40;97.70;;;;;;5073463;28;20543;-69
2022/12/09 06:23:52;;;;;;;1.83;1.73;;;3.40;97.80;;;;;;5073317;28;20223;-69
2022/12/09 06:26:28;;;;;;;2.38;2.28;;;3.40;97.80;;;;;;5073180;28;20161;-69
2022/12/09 06:28:54;;;;;;;5.85;2.65;;;3.40;97.80;;;;;;5073187;28;20193;-68
2022/12/09 06:31:21;;;;;;;4.63;4.28;;;3.40;97.80;;;;;;5072104;28;20529;-69
2022/12/09 06:33:47;;;;;;;1.65;1.55;;;3.30;97.90;;;;;;5073356;28;20533;-69
2022/12/09 06:36:13;;;;;;;1.48;1.35;;;3.30;97.90;;;;;;5072839;28;20665;-68
2022/12/09 06:38:38;;;;;;;1.27;1.10;;;3.30;97.80;;;;;;5073406;28;20205;-69
2022/12/09 06:41:06;;;;;;;1.90;1.43;;;3.40;97.90;;;;;;5075383;28;20262;-68
2022/12/09 06:43:31;;;;;;;1.42;1.33;;;3.30;97.90;;;;;;5077204;28;20176;-68
2022/12/09 06:45:57;;;;;;;4.70;4.03;;;3.40;98.00;;;;;;5077030;28;20174;-68
2022/12/09 06:48:23;;;;;;;3.07;2.80;;;3.40;98.00;;;;;;5077004;28;20776;-68
2022/12/09 06:50:50;;;;;;;1.63;1.10;;;3.40;98.00;;;;;;5076988;28;20638;-68
2022/12/09 06:53:16;;;;;;;3.53;2.28;;;3.40;98.00;;;;;;5077000;28;20642;-69
2022/12/09 06:55:41;;;;;;;1.20;1.10;;;3.40;98.10;;;;;;5076825;28;20183;-69
2022/12/09 06:58:07;;;;;;;3.07;1.90;;;3.50;98.10;;;;;;5076864;28;20224;-68
2022/12/09 07:00:33;;;;;;;2.50;2.40;;;3.50;98.10;;;;;;5076768;28;20197;-68
2022/12/09 07:02:58;;;;;;;0.83;0.83;;;3.40;98.10;;;;;;5077218;28;20624;-68
2022/12/09 07:05:24;;;;;;;7.93;3.00;;;3.40;98.00;;;;;;5076545;28;20176;-68
2022/12/09 07:07:51;;;;;;;3.30;1.20;;;3.40;98.10;;;;;;5076570;28;20561;-69
2022/12/09 07:10:17;;;;;;;2.05;1.95;;;3.40;98.10;;;;;;5076669;28;20223;-68
2022/12/09 07:12:43;;;;;;;2.15;2.05;;;3.40;98.20;;;;;;5076754;28;20174;-68
2022/12/09 07:15:09;;;;;;;1.10;1.10;;;3.40;98.30;;;;;;5076414;28;20260;-69
2022/12/09 07:17:35;;;;;;;2.70;2.58;;;3.50;98.40;;;;;;5076603;28;20197;-69
2022/12/09 07:20:01;;;;;;;1.73;1.70;;;3.60;98.30;;;;;;5076540;28;20215;-68
2022/12/09 07:22:26;;;;;;;3.43;3.23;;;3.60;98.10;;;;;;5076819;28;20196;-68
2022/12/09 07:24:52;;;;;;;3.07;2.87;;;3.60;98.10;;;;;;5076349;28;20575;-69
2022/12/09 07:27:18;;;;;;;0.60;0.60;;;3.60;98.00;;;;;;5076391;28;20552;-69
2022/12/09 07:29:43;;;;;;;3.00;2.80;;;3.50;97.90;;;;;;5076260;28;20638;-68
2022/12/09 07:32:09;;;;;;;5.90;4.33;;;3.60;97.90;;;;;;5076289;28;20162;-68
2022/12/09 07:34:36;;;;;;;1.90;1.80;;;3.60;97.90;;;;;;5075944;28;20162;-69
2022/12/09 07:37:02;;;;;;;14.77;3.08;;;3.60;98.00;;;;;;5075862;28;20208;-69
2022/12/09 07:39:28;;;;;;;4.67;3.37;;;3.60;98.00;;;;;;5076265;28;20162;-68
2022/12/09 07:41:55;;;;;;;2.47;2.37;;;3.60;98.10;;;;;;5076192;28;20188;-68
2022/12/09 07:44:22;;;;;;;3.03;2.92;;;3.60;98.10;;;;;;5075934;28;20196;-70
2022/12/09 07:46:47;;;;;;;4.95;4.55;;;3.70;99.90;;;;;;5075974;28;20174;-68
2022/12/09 07:49:13;;;;;;;2.07;1.97;;;3.70;98.00;;;;;;5076096;28;20524;-69
2022/12/09 07:51:39;;;;;;;2.90;2.20;;;3.70;98.00;;;;;;5074668;28;20177;-69
2022/12/09 07:54:05;;;;;;;3.67;3.47;;;3.70;98.10;;;;;;5075635;28;20578;-69
2022/12/09 07:56:31;;;;;;;6.47;3.83;;;;;;;;;;5075767;28;20426;-69
2022/12/09 07:58:57;;;;;;;4.53;2.60;;;3.80;97.70;;;;;;5075798;28;20185;-68
2022/12/09 08:01:28;;;;;;;6.63;2.13;;;3.90;98.10;;;;;;5075731;28;20240;-67
2022/12/09 08:03:54;;;;;;;3.25;3.08;;;3.90;97.90;;;;;;5075843;28;20396;-69
2022/12/09 08:06:23;;;;;;;4.25;3.60;;;3.90;97.90;;;;;;5075515;28;20525;-69
2022/12/09 08:08:49;;;;;;;1.92;1.92;;;4.00;97.80;;;;;;5075490;28;20189;-69
2022/12/09 08:11:23;;;;;;;2.35;2.25;;;4.00;97.70;;;;;;5075615;28;20260;-69
2022/12/09 08:13:50;;;;;;;2.03;1.38;;;4.10;97.70;;;;;;5075330;28;20615;-68
2022/12/09 08:16:18;;;;;;;0.30;0.30;;;4.10;97.50;;;;;;5075213;28;20694;-68
2022/12/09 08:18:45;;;;;;;2.05;1.95;;;4.10;97.50;;;;;;5075287;28;20228;-69
2022/12/09 08:21:21;;;;;;;1.90;1.90;;;3.80;99.90;;;;;;5075420;28;20201;-68
2022/12/09 08:23:47;;;;;;;1.70;1.50;;;4.10;97.40;;;;;;5075437;28;20169;-69
2022/12/09 08:26:14;;;;;;;1.20;1.20;;;4.20;97.40;;;;;;5074967;28;20199;-69
2022/12/09 08:28:40;;;;;;;3.30;3.20;;;4.10;97.10;;;;;;5075091;28;20572;-69
2022/12/09 08:31:11;;;;;;;1.63;1.50;;;4.10;97.00;;;;;;5073857;28;20174;-69
2022/12/09 08:33:37;;;;;;;3.70;3.55;;;4.10;96.90;;;;;;5075442;28;20408;-69
2022/12/09 08:36:08;;;;;;;1.50;1.50;;;4.10;97.00;;;;;;5074914;28;20649;-68
2022/12/09 08:38:33;;;;;;;1.45;1.35;;;4.10;97.00;;;;;;5075108;28;20213;-69
2022/12/09 08:41:08;;;;;;;3.47;3.10;;;4.10;97.10;;;;;;5074987;28;20204;-69
2022/12/09 08:43:33;;;;;;;6.68;4.43;;;4.10;97.40;;;;;;5074964;28;20164;-68
2022/12/09 08:45:59;;;;;;;1.27;1.27;;;4.10;97.50;;;;;;5074783;28;20530;-68
2022/12/09 08:48:25;;;;;;;3.40;2.40;;;4.10;97.50;;;;;;5074731;28;20189;-68
2022/12/09 08:50:52;;;;;;;1.60;1.60;;;4.10;97.50;;;;;;5074852;28;20174;-69
2022/12/09 08:53:18;;;;;;;4.25;3.95;;;4.10;97.40;;;;;;5074545;28;20465;-69
2022/12/09 08:55:44;;;;;;;4.57;3.73;;;4.20;97.50;;;;;;5074367;28;20177;-69
2022/12/09 08:58:09;;;;;;;3.00;1.93;;;4.30;97.50;;;;;;5074482;28;20190;-69
2022/12/09 09:00:35;;;;;;;2.93;2.60;;;4.40;97.50;;;;;;5074599;28;20600;-69
2022/12/09 09:03:01;;;;;;;3.80;3.60;;;4.50;97.30;;;;;;5074138;28;20169;-69
2022/12/09 09:05:26;;;;;;;1.10;1.10;;;4.50;96.90;;;;;;5074298;28;20169;-69
2022/12/09 09:07:52;;;;;;;8.90;5.63;;;4.60;96.80;;;;;;5074297;28;20185;-69
2022/12/09 09:10:18;;;;;;;3.00;2.77;;;4.60;96.80;;;;;;5074329;28;20174;-69
2022/12/09 09:12:43;;;;;;;8.00;1.83;;;4.70;96.70;;;;;;5074279;28;20169;-69
2022/12/09 09:15:09;;;;;;;2.20;2.10;;;4.70;96.70;;;;;;5074164;28;20170;-68
2022/12/09 09:17:35;;;;;;;4.30;1.73;;;4.70;96.70;;;;;;5074139;28;20559;-69
2022/12/09 09:20:00;;;;;;;3.00;2.63;;;4.70;96.50;;;;;;5074183;28;20467;-68
2022/12/09 09:22:26;;;;;;;1.47;1.30;;;4.70;96.50;;;;;;5074243;28;20574;-69
2022/12/09 09:24:52;;;;;;;3.80;3.50;;;4.80;96.60;;;;;;5072647;28;20589;-69
2022/12/09 09:27:19;;;;;;;3.83;3.55;;;4.90;96.60;;;;;;5074141;28;20188;-68
2022/12/09 09:29:44;;;;;;;2.05;1.70;;;4.80;96.30;;;;;;5073959;28;20532;-69
2022/12/09 09:32:10;;;;;;;4.33;4.07;;;4.80;96.30;;;;;;5074044;28;20177;-69
2022/12/09 09:34:35;;;;;;;5.33;3.30;;;4.90;96.30;;;;;;5073955;28;20218;-67
2022/12/09 09:37:01;;;;;;;2.80;2.70;;;4.90;96.40;;;;;;5073662;28;20221;-69
2022/12/09 09:39:27;;;;;;;8.80;4.83;;;4.90;96.30;;;;;;5073807;28;20170;-69
2022/12/09 09:41:56;;;;;;;2.40;2.30;;;4.90;96.40;;;;;;5073794;28;20580;-69
2022/12/09 09:44:46;;;;;;;6.95;2.15;;;5.00;96.30;;;;;;5073521;28;20247;-69
2022/12/09 09:47:33;;;;;;;0.98;0.98;;;5.00;96.10;;;;;;5073780;28;20766;-69
2022/12/09 09:50:24;;;;;;;2.67;2.33;;;5.00;96.30;;;;;;5073684;28;20174;-69
2022/12/09 09:52:52;;;;;;;1.77;1.67;;;5.00;96.30;;;;;;5073141;28;20188;-69
2022/12/09 09:55:40;;;;;;;3.63;2.80;;;5.00;96.10;;;;;;5073358;28;20174;-69
2022/12/09 09:58:22;;;;;;;5.07;2.25;;;5.10;96.10;;;;;;5073236;28;20436;-68
2022/12/09 10:01:14;;;;;;;3.08;2.80;;;5.10;96.00;;;;;;5073546;28;20201;-69
2022/12/09 10:03:46;;;;;;;1.80;1.67;;;5.10;96.20;;;;;;5073131;28;20226;-69
2022/12/09 10:06:32;;;;;;;1.00;1.00;;;5.10;95.90;;;;;;5073528;28;20622;-69
2022/12/09 10:09:09;;;;;;;1.17;1.15;;;5.10;96.00;;;;;;5073238;28;20204;-68
2022/12/09 10:11:48;;;;;;;0.57;0.57;;;5.10;96.10;;;;;;5073709;28;20177;-68
2022/12/09 10:14:55;;;;;;;5.47;1.95;;;5.10;96.20;;;;;;5073234;28;20520;-69
2022/12/09 10:17:32;;;;;;;0.80;0.55;;;5.00;96.20;;;;;;5073347;28;20198;-69
2022/12/09 10:20:09;;;;;;;1.10;0.73;;;5.00;96.20;;;;;;5073296;28;20189;-68
2022/12/09 10:22:47;;;;;;;1.85;1.75;;;5.10;96.20;;;;;;5073396;28;20234;-69
2022/12/09 10:25:25;;;;;;;0.63;0.63;;;5.20;96.10;;;;;;5073457;28;20231;-68
2022/12/09 10:28:06;;;;;;;2.10;2.00;;;5.20;96.00;;;;;;5073430;28;20228;-69
2022/12/09 10:30:32;;;;;;;3.05;2.85;;;5.20;96.00;;;;;;5072172;28;20174;-68
2022/12/09 10:32:57;;;;;;;0.93;0.93;;;5.30;95.80;;;;;;5072148;28;20187;-68
2022/12/09 10:35:27;;;;;;;2.50;2.10;;;5.30;95.80;;;;;;5073070;28;20264;-69
2022/12/09 10:37:55;;;;;;;0.95;0.95;;;5.30;95.70;;;;;;5073113;28;20209;-69
2022/12/09 10:40:45;;;;;;;2.35;1.75;;;5.40;95.80;;;;;;5073311;28;20326;-69
2022/12/09 10:46:11;;;;;;;6.45;4.75;;;5.50;95.80;;;;;;5072999;28;20188;-68
2022/12/09 10:48:42;;;;;;;0.93;0.82;;;5.50;95.70;;;;;;5072896;28;20213;-69
2022/12/09 10:51:29;;;;;;;2.22;2.13;;;5.60;95.80;;;;;;5073304;28;20242;-69
2022/12/09 10:54:09;;;;;;;2.22;1.67;;;5.50;95.70;;;;;;5073121;28;20557;-69
2022/12/09 10:56:56;;;;;;;3.17;1.17;;;5.60;97.80;;;;;;5071622;28;20185;-69
2022/12/09 10:59:30;;;;;;;4.10;3.85;;;5.50;95.50;;;;;;5072852;28;20184;-69
2022/12/09 11:01:59;;;;;;;1.45;1.45;;;5.50;95.60;;;;;;5073027;28;20211;-69
2022/12/09 11:04:36;;;;;;;4.35;4.15;;;5.50;95.60;;;;;;5072866;28;20241;-67
2022/12/09 11:07:13;;;;;;;1.10;1.10;;;5.50;95.50;;;;;;5073052;28;20199;-68
2022/12/09 11:09:43;;;;;;;1.38;1.38;;;5.60;95.60;;;;;;5073065;28;20154;-69
2022/12/09 11:12:27;;;;;;;1.88;1.77;;;5.70;95.60;;;;;;5072931;28;20257;-69
2022/12/09 11:14:57;;;;;;;1.17;1.17;;;5.70;95.70;;;;;;5072674;28;20178;-68
2022/12/09 11:17:31;;;;;;;1.13;1.13;;;5.80;95.70;;;;;;5072875;28;20198;-69
2022/12/09 11:20:12;;;;;;;1.75;1.65;;;5.70;95.60;;;;;;5072912;28;20195;-69
2022/12/09 11:22:40;;;;;;;1.05;1.05;;;5.80;95.50;;;;;;5073149;28;20643;-68
2022/12/09 11:25:11;;;;;;;3.10;2.90;;;5.70;95.40;;;;;;5072614;28;20227;-69
2022/12/09 11:27:41;;;;;;;1.15;1.15;;;5.60;95.50;;;;;;5075533;28;20198;-68
2022/12/09 11:30:13;;;;;;;0.88;0.88;;;5.60;95.50;;;;;;5076433;28;20181;-69
2022/12/09 11:33:06;;;;;;;2.08;1.98;;;5.70;95.50;;;;;;5076228;28;20644;-69
2022/12/09 11:35:44;;;;;;;3.03;2.72;;;5.80;95.50;;;;;;5076166;28;20210;-69
2022/12/09 11:38:21;;;;;;;2.80;2.70;;;5.70;95.40;;;;;;5075944;28;20325;-69
2022/12/09 11:41:02;;;;;;;1.65;1.65;;;5.80;95.60;;;;;;5076034;28;20275;-69
2022/12/09 11:43:42;;;;;;;0.55;0.55;;;5.80;95.60;;;;;;5076167;28;20563;-69
2022/12/09 11:46:24;;;;;;;2.42;2.22;;;5.80;95.30;;;;;;5075751;28;20166;-69
2022/12/09 11:48:58;;;;;;;0.70;0.70;;;5.80;95.20;;;;;;5075887;28;20675;-69
2022/12/09 11:51:31;;;;;;;0.50;0.50;;;5.90;95.50;;;;;;5075999;28;20256;-68
2022/12/09 11:54:17;;;;;;;1.10;1.02;;;5.90;95.40;;;;;;5076098;28;20182;-69
2022/12/09 11:56:43;;;;;;;1.30;1.20;;;6.00;99.90;;;;;;5075902;28;20572;-68
2022/12/09 11:59:24;;;;;;;0.60;0.60;;;5.90;95.50;;;;;;5075715;28;20256;-69
2022/12/09 12:02:31;;;;;;;5.20;4.82;;;6.00;95.60;;;;;;5075737;28;20306;-69
2022/12/09 12:05:22;;;;;;;0.85;0.85;;;6.10;95.50;;;;;;5075618;28;20188;-69
2022/12/09 12:08:19;;;;;;;0.80;0.80;;;6.20;95.30;;;;;;5075499;28;20209;-68
2022/12/09 12:10:53;;;;;;;3.25;3.05;;;6.30;95.10;;;;;;5075671;28;20170;-69
2022/12/09 12:13:45;;;;;;;1.58;1.52;;;6.40;94.90;;;;;;5075656;28;20632;-68
2022/12/09 12:16:13;;;;;;;2.92;1.90;;;6.50;94.80;;;;;;5075272;28;20176;-67
2022/12/09 12:18:56;;;;;;;1.40;1.27;;;6.50;94.90;;;;;;5075354;28;20769;-68
2022/12/09 12:21:27;;;;;;;0.73;0.73;;;6.60;94.80;;;;;;5075556;28;20213;-69
2022/12/09 12:24:25;;;;;;;1.55;1.55;;;6.60;94.60;;;;;;5075401;28;20179;-69
2022/12/09 12:27:02;;;;;;;1.50;1.40;;;6.40;99.90;;;;;;5073919;28;20183;-69
2022/12/09 12:29:47;;;;;;;6.82;2.45;;;6.50;94.60;;;;;;5075224;28;20167;-68
2022/12/09 12:32:37;;;;;;;4.03;3.83;;;6.40;94.60;;;;;;5075274;28;20170;-69
2022/12/09 12:35:15;;;;;;;5.93;2.95;;;6.30;94.70;;;;;;5075326;28;20171;-69
2022/12/09 12:37:54;;;;;;;3.67;3.47;;;6.10;94.80;;;;;;5074231;28;20222;-69
2022/12/09 12:40:56;;;;;;;1.80;1.40;;;6.10;95.00;;;;;;5074929;28;20255;-68
2022/12/09 12:46:29;;;;;;;0.73;0.73;;;6.10;95.30;;;;;;5074891;28;20207;-69
2022/12/09 12:49:16;;;;;;;2.35;2.15;;;6.10;95.30;;;;;;5074884;28;20188;-69
2022/12/09 12:51:57;;;;;;;2.25;2.15;;;6.00;95.30;;;;;;5075059;28;20186;-68
2022/12/09 12:54:38;;;;;;;1.85;1.75;;;6.10;95.50;;;;;;5074640;28;20171;-68
2022/12/09 12:57:32;;;;;;;1.85;1.80;;;6.10;95.50;;;;;;5074553;28;20190;-68
2022/12/09 13:00:16;;;;;;;5.57;1.55;;;6.10;95.70;;;;;;5074080;28;20187;-68
2022/12/09 13:03:05;;;;;;;2.38;2.25;;;6.00;95.70;;;;;;5074627;28;20175;-68
2022/12/09 13:05:36;;;;;;;3.08;2.88;;;6.00;95.70;;;;;;5074043;28;20558;-69
2022/12/09 13:08:09;;;;;;;1.50;1.20;;;6.00;95.70;;;;;;5074321;28;20234;-69
2022/12/09 13:10:42;;;;;;;1.13;1.13;;;5.90;95.80;;;;;;5074462;28;20202;-68
2022/12/09 13:13:20;;;;;;;3.00;1.30;;;5.90;95.90;;;;;;5074611;28;20178;-69
2022/12/09 13:15:50;;;;;;;1.15;1.05;;;5.80;95.90;;;;;;5074022;28;20172;-68
2022/12/09 13:18:27;;;;;;;1.38;1.38;;;5.80;96.00;;;;;;5074187;28;20197;-69
2022/12/09 13:20:58;;;;;;;0.75;0.75;;;5.80;96.10;;;;;;5074300;28;20670;-69
2022/12/09 13:23:45;;;;;;;2.95;2.80;;;5.80;96.20;;;;;;5074059;28;20188;-69